Time;durP1;ratioP1;P1;durP2;ratioP2;P2;SDS_P1;SDS_P2;PMS_P1;PMS_P2;Temp;Humidity;BMP_temperature;BMP_pressure;BME280_temperature;BME280_humidity;BME280_pressure;Samples;Min_cycle;Max_cycle;Signal;HPM_P1;HPM_P2
2021/01/18 00:01:06;;;;;;;16.55;5.68;;;5.60;99.90;;;;;;4175093;28;20037;-68
2021/01/18 00:03:06;;;;;;;14.35;5.15;;;5.60;99.90;;;;;;4187060;28;20048;-68
2021/01/18 00:05:09;;;;;;;14.82;4.80;;;5.60;99.90;;;;;;4198572;28;20109;-68
2021/01/18 00:07:09;;;;;;;15.85;5.60;;;5.60;99.90;;;;;;4190259;28;20040;-68
2021/01/18 00:09:10;;;;;;;15.90;5.50;;;5.60;99.90;;;;;;4188801;28;20063;-68
2021/01/18 00:11:12;;;;;;;18.80;6.43;;;5.60;99.90;;;;;;4190055;28;20044;-68
2021/01/18 00:13:12;;;;;;;24.50;6.43;;;5.60;99.90;;;;;;4190128;28;20454;-68
2021/01/18 00:15:14;;;;;;;10.93;4.93;;;5.60;99.90;;;;;;4187972;28;20052;-68
2021/01/18 00:17:15;;;;;;;14.80;5.13;;;5.60;99.90;;;;;;4220033;28;20062;-68
2021/01/18 00:19:15;;;;;;;21.45;5.85;;;5.60;99.90;;;;;;4194123;28;20392;-68
2021/01/18 00:21:16;;;;;;;16.65;5.43;;;5.60;99.90;;;;;;4194439;28;20227;-68
2021/01/18 00:23:17;;;;;;;17.60;5.60;;;5.60;99.90;;;;;;4189463;28;20044;-68
2021/01/18 00:25:23;;;;;;;16.92;4.57;;;5.60;99.90;;;;;;4189823;28;20431;-68
2021/01/18 00:27:23;;;;;;;20.65;5.63;;;5.60;99.90;;;;;;4189993;28;20040;-68
2021/01/18 00:29:24;;;;;;;20.85;6.03;;;5.60;99.90;;;;;;4174168;28;20063;-68
2021/01/18 00:31:25;;;;;;;18.80;5.43;;;5.60;99.90;;;;;;4191772;28;20120;-68
2021/01/18 00:33:25;;;;;;;17.05;5.60;;;5.60;99.90;;;;;;4193216;28;20398;-68
2021/01/18 00:35:27;;;;;;;21.30;5.45;;;5.60;99.90;;;;;;4193614;28;20051;-68
2021/01/18 00:37:28;;;;;;;17.15;4.95;;;5.60;99.90;;;;;;4193344;28;20040;-68
2021/01/18 00:39:28;;;;;;;17.00;4.65;;;5.60;99.90;;;;;;4192901;28;20032;-68
2021/01/18 00:41:29;;;;;;;13.15;5.55;;;5.60;99.90;;;;;;4193399;28;20264;-68
2021/01/18 00:43:30;;;;;;;16.23;4.53;;;5.60;99.90;;;;;;4193130;28;20365;-68
2021/01/18 00:45:31;;;;;;;18.95;4.75;;;5.60;99.90;;;;;;4192973;28;20037;-68
2021/01/18 00:47:32;;;;;;;13.75;5.25;;;5.60;99.90;;;;;;4192986;28;20037;-68
2021/01/18 00:49:32;;;;;;;13.07;4.47;;;5.60;99.90;;;;;;4193170;28;20498;-68
2021/01/18 00:51:39;;;;;;;20.00;4.90;;;5.60;99.90;;;;;;4198245;28;20028;-68
2021/01/18 00:53:39;;;;;;;9.40;3.83;;;5.60;99.90;;;;;;4174509;28;20036;-68
2021/01/18 00:55:40;;;;;;;17.13;5.13;;;5.60;99.90;;;;;;4176823;28;20035;-68
2021/01/18 00:57:40;;;;;;;13.52;4.53;;;5.60;99.90;;;;;;4174682;28;20021;-68
2021/01/18 00:59:41;;;;;;;15.23;4.18;;;5.60;99.90;;;;;;4173870;28;20034;-68
2021/01/18 01:01:41;;;;;;;16.25;4.93;;;5.60;99.90;;;;;;4174539;28;20049;-68
2021/01/18 01:03:42;;;;;;;13.13;4.32;;;5.60;99.90;;;;;;4175238;28;20508;-68
2021/01/18 01:05:43;;;;;;;14.65;4.45;;;5.50;99.90;;;;;;4157449;28;20025;-68
2021/01/18 01:07:46;;;;;;;16.55;4.63;;;5.60;99.90;;;;;;4175742;28;20048;-68
2021/01/18 01:09:46;;;;;;;17.95;4.30;;;5.60;99.90;;;;;;4176018;28;20489;-68
2021/01/18 01:11:47;;;;;;;12.40;4.30;;;5.60;99.90;;;;;;4173885;28;20037;-68
2021/01/18 01:13:48;;;;;;;11.40;4.07;;;5.60;99.90;;;;;;4180801;28;20196;-68
2021/01/18 01:15:49;;;;;;;17.52;4.47;;;5.60;99.90;;;;;;4192202;28;20037;-68
2021/01/18 01:17:49;;;;;;;12.65;4.10;;;5.70;99.90;;;;;;4191888;28;20029;-68
2021/01/18 01:19:50;;;;;;;14.27;4.00;;;5.60;99.90;;;;;;4192763;28;20390;-68
2021/01/18 01:21:51;;;;;;;12.82;3.97;;;5.60;99.90;;;;;;4193590;28;20047;-68
2021/01/18 01:23:51;;;;;;;16.90;4.00;;;5.60;99.90;;;;;;4191838;28;20561;-68
2021/01/18 01:25:52;;;;;;;12.48;3.92;;;5.60;99.90;;;;;;4176865;28;20087;-68
2021/01/18 01:27:53;;;;;;;12.35;4.18;;;5.60;99.90;;;;;;4192007;28;20039;-68
2021/01/18 01:29:53;;;;;;;18.48;4.60;;;5.60;99.90;;;;;;4191744;28;20461;-68
2021/01/18 01:31:54;;;;;;;14.13;4.68;;;5.60;99.90;;;;;;4175707;28;20037;-68
2021/01/18 01:33:54;;;;;;;7.78;4.05;;;5.60;99.90;;;;;;4175799;28;20041;-68
2021/01/18 01:35:55;;;;;;;14.02;4.03;;;5.60;99.90;;;;;;4174199;28;20033;-68
2021/01/18 01:37:56;;;;;;;15.27;4.80;;;5.60;99.90;;;;;;4175696;28;20045;-68
2021/01/18 01:39:56;;;;;;;16.27;4.57;;;5.60;99.90;;;;;;4174823;28;20091;-68
2021/01/18 01:41:57;;;;;;;20.33;4.43;;;5.60;99.90;;;;;;4175314;28;20041;-68
2021/01/18 01:43:58;;;;;;;12.00;3.67;;;5.60;99.90;;;;;;4175224;28;20056;-68
2021/01/18 01:45:58;;;;;;;14.93;4.10;;;5.60;99.90;;;;;;4173481;28;20171;-68
2021/01/18 01:48:00;;;;;;;10.30;3.65;;;5.60;99.90;;;;;;4173605;28;20100;-68
2021/01/18 01:50:05;;;;;;;13.82;4.30;;;5.60;99.90;;;;;;4173986;28;20039;-68
2021/01/18 01:52:05;;;;;;;9.45;3.45;;;5.60;99.90;;;;;;4175117;28;20033;-68
2021/01/18 01:54:07;;;;;;;11.05;3.95;;;5.60;99.90;;;;;;4175318;28;20044;-68
2021/01/18 01:56:07;;;;;;;13.32;3.42;;;5.60;99.90;;;;;;4172971;28;20033;-68
2021/01/18 01:58:09;;;;;;;15.48;3.78;;;5.60;99.90;;;;;;4174506;28;20029;-68
2021/01/18 02:00:10;;;;;;;5.78;3.15;;;5.60;99.90;;;;;;4175492;28;20037;-68
2021/01/18 02:02:13;;;;;;;15.77;4.53;;;5.60;99.90;;;;;;4156753;28;20033;-68
2021/01/18 02:04:14;;;;;;;11.95;3.50;;;5.60;99.90;;;;;;4170444;28;20045;-68
2021/01/18 02:06:14;;;;;;;13.85;3.90;;;5.60;99.90;;;;;;4175105;28;20044;-68
2021/01/18 02:08:15;;;;;;;12.50;3.88;;;5.60;99.90;;;;;;4172037;28;20045;-68
2021/01/18 02:10:16;;;;;;;12.65;4.00;;;5.60;99.90;;;;;;4174696;28;20033;-68
2021/01/18 02:12:17;;;;;;;8.68;3.42;;;5.60;99.90;;;;;;4173694;28;20051;-68
2021/01/18 02:14:37;;;;;;;19.25;4.15;;;5.60;99.90;;;;;;4174923;28;20100;-68
2021/01/18 02:16:47;;;;;;;12.20;4.35;;;5.50;99.90;;;;;;4171243;28;20631;-68
2021/01/18 02:18:55;;;;;;;14.30;5.32;;;5.60;99.90;;;;;;4174338;28;20033;-69
2021/01/18 02:21:24;;;;;;;12.82;4.75;;;5.60;99.90;;;;;;4170313;28;20037;-68
2021/01/18 02:23:52;;;;;;;12.68;5.03;;;5.60;99.90;;;;;;4190007;28;20389;-68
2021/01/18 02:26:07;;;;;;;14.27;4.85;;;5.60;99.90;;;;;;4191618;28;20039;-68
2021/01/18 02:28:58;;;;;;;11.50;4.85;;;5.60;99.90;;;;;;4189885;28;20377;-68
2021/01/18 02:31:31;;;;;;;11.30;5.20;;;5.60;99.90;;;;;;4150415;28;20074;-68
2021/01/18 02:34:07;;;;;;;13.07;5.60;;;5.60;99.90;;;;;;4136077;28;20117;-68
2021/01/18 02:36:17;;;;;;;12.48;5.20;;;5.60;99.90;;;;;;4170879;28;20056;-68
2021/01/18 02:38:26;;;;;;;16.35;6.07;;;5.60;99.90;;;;;;4175191;28;20017;-68
2021/01/18 02:40:35;;;;;;;14.00;6.25;;;5.60;99.90;;;;;;4174107;28;20103;-68
2021/01/18 02:42:50;;;;;;;18.65;7.05;;;5.60;99.90;;;;;;4173370;28;20111;-68
2021/01/18 02:44:57;;;;;;;13.00;6.00;;;5.50;99.90;;;;;;4201986;28;20051;-68
2021/01/18 02:46:59;;;;;;;14.40;6.53;;;5.60;99.90;;;;;;4174460;28;20056;-68
2021/01/18 02:49:02;;;;;;;15.95;6.68;;;5.60;99.90;;;;;;4175919;28;20028;-68
2021/01/18 02:51:07;;;;;;;15.23;6.97;;;5.50;99.90;;;;;;4172338;28;20029;-69
2021/01/18 02:53:09;;;;;;;15.45;6.35;;;5.60;99.90;;;;;;4174091;28;20047;-69
2021/01/18 02:55:12;;;;;;;18.60;8.05;;;5.60;99.90;;;;;;4189474;28;20277;-68
2021/01/18 02:57:14;;;;;;;;;;;5.50;99.90;;;;;;4189740;28;20033;-68
2021/01/18 02:59:15;;;;;;;16.48;7.18;;;5.60;99.90;;;;;;4191281;28;19918;-68
2021/01/18 03:01:26;;;;;;;16.48;7.50;;;5.60;99.90;;;;;;4191317;28;20036;-68
2021/01/18 03:03:57;;;;;;;19.30;9.05;;;5.50;99.90;;;;;;4189297;28;20123;-68
2021/01/18 03:06:18;;;;;;;21.90;9.10;;;5.50;99.90;;;;;;4190697;28;20044;-68
2021/01/18 03:08:24;;;;;;;22.30;9.50;;;5.50;99.90;;;;;;4190665;28;20040;-69
2021/01/18 03:10:55;;;;;;;16.42;8.32;;;5.50;99.90;;;;;;4174513;28;20393;-68
2021/01/18 03:13:22;;;;;;;24.77;10.15;;;5.50;99.90;;;;;;4172093;28;20388;-68
2021/01/18 03:15:25;;;;;;;19.05;10.05;;;5.50;99.90;;;;;;4173909;28;20128;-68
2021/01/18 03:17:30;;;;;;;25.33;9.45;;;5.50;99.90;;;;;;4156510;28;20329;-68
2021/01/18 03:19:51;;;;;;;23.50;10.43;;;5.40;99.90;;;;;;4189353;28;20035;-68
2021/01/18 03:21:52;;;;;;;23.17;9.98;;;5.50;99.90;;;;;;4188350;28;20049;-68
2021/01/18 03:23:53;;;;;;;19.02;9.90;;;5.50;99.90;;;;;;4191256;28;20324;-68
2021/01/18 03:25:56;;;;;;;26.15;9.50;;;5.50;99.90;;;;;;4188776;28;20047;-68
2021/01/18 03:27:59;;;;;;;21.05;9.32;;;5.60;99.90;;;;;;4190484;28;20391;-68
2021/01/18 03:30:00;;;;;;;22.58;9.18;;;5.50;99.90;;;;;;4189331;28;20052;-68
2021/01/18 03:32:00;;;;;;;20.75;10.27;;;5.50;99.90;;;;;;4179165;28;20083;-68
2021/01/18 03:34:01;;;;;;;24.15;9.48;;;5.50;99.90;;;;;;4174193;28;20033;-68
2021/01/18 03:36:02;;;;;;;14.18;8.77;;;5.60;99.90;;;;;;4174135;28;20037;-69
2021/01/18 03:38:03;;;;;;;19.65;9.95;;;5.50;99.90;;;;;;4172601;28;20037;-68
2021/01/18 03:40:04;;;;;;;21.25;9.45;;;5.50;99.90;;;;;;4172166;28;20036;-68
2021/01/18 03:42:05;;;;;;;15.43;9.20;;;5.60;99.90;;;;;;4172831;28;20071;-68
2021/01/18 03:44:05;;;;;;;20.85;9.63;;;5.50;99.90;;;;;;4172513;28;20061;-68
2021/01/18 03:46:06;;;;;;;15.88;9.55;;;5.60;99.90;;;;;;4173643;28;20037;-68
2021/01/18 03:48:09;;;;;;;21.58;10.38;;;5.50;99.90;;;;;;4172884;28;20219;-68
2021/01/18 03:50:10;;;;;;;21.52;9.52;;;5.50;99.90;;;;;;4170254;28;20039;-69
2021/01/18 03:52:11;;;;;;;21.00;9.40;;;5.50;99.90;;;;;;4156244;28;20462;-68
2021/01/18 03:54:11;;;;;;;18.35;9.73;;;5.50;99.90;;;;;;4169508;28;20033;-68
2021/01/18 03:56:12;;;;;;;18.83;8.55;;;5.50;99.90;;;;;;4173184;28;20041;-69
2021/01/18 03:58:12;;;;;;;23.08;9.55;;;5.50;99.90;;;;;;4174417;28;20086;-68
2021/01/18 04:00:14;;;;;;;19.73;9.57;;;5.50;99.90;;;;;;4174324;28;20041;-68
2021/01/18 04:02:15;;;;;;;17.95;8.85;;;5.50;99.90;;;;;;4173691;28;20040;-68
2021/01/18 04:04:15;;;;;;;17.48;8.32;;;5.50;99.90;;;;;;4176229;28;20037;-68
2021/01/18 04:06:16;;;;;;;17.13;8.85;;;5.50;99.90;;;;;;4177620;28;20041;-69
2021/01/18 04:08:16;;;;;;;20.27;8.95;;;5.50;99.90;;;;;;4175543;28;20044;-68
2021/01/18 04:10:25;;;;;;;20.58;8.82;;;5.50;99.90;;;;;;4177751;28;20555;-68
2021/01/18 04:12:26;;;;;;;17.33;8.95;;;5.50;99.90;;;;;;4193640;28;20064;-68
2021/01/18 04:14:27;;;;;;;18.77;8.80;;;5.40;99.90;;;;;;4193644;28;20049;-68
2021/01/18 04:16:27;;;;;;;15.48;8.00;;;5.40;99.90;;;;;;4192706;28;20055;-68
2021/01/18 04:18:28;;;;;;;15.63;8.10;;;5.50;99.90;;;;;;4194438;28;20103;-68
2021/01/18 04:20:28;;;;;;;16.85;8.50;;;5.40;99.90;;;;;;4193809;28;20036;-68
2021/01/18 04:22:29;;;;;;;12.90;7.47;;;5.40;99.90;;;;;;4193908;28;20074;-68
2021/01/18 04:24:29;;;;;;;19.65;8.88;;;5.40;99.90;;;;;;4192693;28;20048;-68
2021/01/18 04:26:31;;;;;;;17.52;8.10;;;5.40;99.90;;;;;;4205281;28;20062;-68
2021/01/18 04:28:32;;;;;;;21.45;9.35;;;5.40;99.90;;;;;;4191852;28;20434;-68
2021/01/18 04:30:37;;;;;;;19.45;8.80;;;5.40;99.90;;;;;;4223715;28;20031;-68
2021/01/18 04:32:38;;;;;;;20.05;9.13;;;5.40;99.90;;;;;;4183077;28;20096;-68
2021/01/18 04:34:38;;;;;;;25.17;8.75;;;5.40;99.90;;;;;;4194161;28;20040;-68
2021/01/18 04:36:39;;;;;;;18.67;9.10;;;5.40;99.90;;;;;;4193595;28;20396;-69
2021/01/18 04:38:40;;;;;;;23.48;8.80;;;5.40;99.90;;;;;;4192940;28;20067;-68
2021/01/18 04:40:42;;;;;;;20.60;8.90;;;5.40;99.90;;;;;;4191893;28;20029;-68
2021/01/18 04:42:42;;;;;;;17.30;8.30;;;5.40;99.90;;;;;;4200008;28;20095;-68
2021/01/18 04:44:43;;;;;;;14.38;7.65;;;5.40;99.90;;;;;;4197275;28;20418;-68
2021/01/18 04:46:45;;;;;;;21.05;9.07;;;5.40;99.90;;;;;;4192820;28;20484;-68
2021/01/18 04:48:46;;;;;;;22.02;8.63;;;5.40;99.90;;;;;;4192725;28;20032;-68
2021/01/18 04:50:47;;;;;;;15.75;8.10;;;5.40;99.90;;;;;;4194089;28;20388;-68
2021/01/18 04:52:53;;;;;;;18.00;7.85;;;5.40;99.90;;;;;;4218078;28;20082;-68
2021/01/18 04:55:00;;;;;;;23.08;9.20;;;5.40;99.90;;;;;;4191261;28;20044;-68
2021/01/18 04:57:24;;;;;;;16.90;7.40;;;5.40;99.90;;;;;;4190088;28;20029;-68
2021/01/18 04:59:29;;;;;;;18.75;8.27;;;5.40;99.90;;;;;;4190043;28;20066;-68
2021/01/18 05:01:35;;;;;;;20.00;8.23;;;5.40;99.90;;;;;;4189830;28;20032;-68
2021/01/18 05:03:36;;;;;;;23.00;7.70;;;5.40;99.90;;;;;;4193419;28;20044;-68
2021/01/18 05:05:54;;;;;;;22.23;8.15;;;5.40;99.90;;;;;;4193440;28;20044;-68
2021/01/18 05:08:06;;;;;;;19.52;8.38;;;5.30;99.90;;;;;;4191074;28;20500;-68
2021/01/18 05:10:09;;;;;;;16.60;7.30;;;5.40;99.90;;;;;;4193325;28;20116;-68
2021/01/18 05:12:10;;;;;;;20.65;8.68;;;5.40;99.90;;;;;;4191475;28;20116;-68
2021/01/18 05:14:11;;;;;;;14.23;7.70;;;5.40;99.90;;;;;;4191315;28;20692;-68
2021/01/18 05:16:12;;;;;;;19.55;8.27;;;5.30;99.90;;;;;;4183947;28;20025;-68
2021/01/18 05:18:13;;;;;;;15.25;6.95;;;5.30;99.90;;;;;;4190152;28;20029;-68
2021/01/18 05:20:16;;;;;;;15.65;7.18;;;5.30;99.90;;;;;;4197446;28;20032;-68
2021/01/18 05:22:17;;;;;;;21.25;7.80;;;5.30;99.90;;;;;;4197136;28;20548;-68
2021/01/18 05:24:19;;;;;;;16.35;7.35;;;5.30;99.90;;;;;;4193271;28;20068;-68
2021/01/18 05:26:25;;;;;;;16.02;7.53;;;5.30;99.90;;;;;;4192918;28;20087;-68
2021/01/18 05:28:25;;;;;;;17.27;6.80;;;5.30;99.90;;;;;;4179188;28;20436;-68
2021/01/18 05:30:27;;;;;;;17.58;7.85;;;5.30;99.90;;;;;;4175807;28;20246;-68
2021/01/18 05:32:28;;;;;;;16.90;7.75;;;5.30;99.90;;;;;;4175803;28;20135;-68
2021/01/18 05:34:30;;;;;;;17.17;7.53;;;5.30;99.90;;;;;;4178655;28;20044;-68
2021/01/18 05:36:36;;;;;;;17.63;7.70;;;5.30;99.90;;;;;;4175908;28;20051;-68
2021/01/18 05:38:36;;;;;;;18.60;7.95;;;5.30;99.90;;;;;;4176108;28;20540;-68
2021/01/18 05:40:39;;;;;;;13.00;7.25;;;5.30;99.90;;;;;;4176557;28;20033;-68
2021/01/18 05:42:40;;;;;;;14.85;7.00;;;5.30;99.90;;;;;;4175258;28;20025;-68
2021/01/18 05:44:41;;;;;;;17.45;7.40;;;5.30;99.90;;;;;;4174542;28;20475;-68
2021/01/18 05:46:46;;;;;;;14.70;7.38;;;5.30;99.90;;;;;;4174138;28;20076;-68
2021/01/18 05:48:47;;;;;;;21.83;8.45;;;5.30;99.90;;;;;;4173679;28;20394;-68
2021/01/18 05:50:59;;;;;;;13.48;7.00;;;5.30;99.90;;;;;;4185981;28;20039;-68
2021/01/18 05:53:01;;;;;;;16.63;7.53;;;5.30;99.90;;;;;;4181341;28;20037;-68
2021/01/18 05:55:15;;;;;;;17.30;7.78;;;5.30;99.90;;;;;;4174597;28;20053;-69
2021/01/18 05:57:16;;;;;;;20.45;8.63;;;5.30;99.90;;;;;;4174995;28;20524;-68
2021/01/18 05:59:25;;;;;;;14.95;6.93;;;5.20;99.90;;;;;;4176023;28;20494;-68
2021/01/18 06:01:39;;;;;;;18.20;8.07;;;5.30;99.90;;;;;;4176306;28;20029;-68
2021/01/18 06:03:40;;;;;;;18.00;7.18;;;5.30;99.90;;;;;;4181565;28;20040;-68
2021/01/18 06:05:41;;;;;;;13.85;6.95;;;5.30;99.90;;;;;;4190661;28;20112;-68
2021/01/18 06:07:42;;;;;;;15.77;7.75;;;5.30;99.90;;;;;;4174710;28;20059;-68
2021/01/18 06:09:47;;;;;;;18.55;7.82;;;5.30;99.90;;;;;;4193119;28;20028;-68
2021/01/18 06:11:48;;;;;;;16.10;7.05;;;5.30;99.90;;;;;;4190653;28;20021;-68
2021/01/18 06:13:48;;;;;;;19.45;7.32;;;5.30;99.90;;;;;;4191103;28;20024;-68
2021/01/18 06:16:10;;;;;;;19.27;8.10;;;5.20;99.90;;;;;;4192184;28;20024;-68
2021/01/18 06:18:15;;;;;;;16.27;8.40;;;5.20;99.90;;;;;;4182476;28;20197;-68
2021/01/18 06:20:19;;;;;;;15.60;7.97;;;5.20;99.90;;;;;;4171504;28;20056;-68
2021/01/18 06:22:29;;;;;;;24.00;8.23;;;5.20;99.90;;;;;;4154417;28;20067;-68
2021/01/18 06:24:32;;;;;;;22.30;9.55;;;5.20;99.90;;;;;;4165948;28;20455;-68
2021/01/18 06:26:36;;;;;;;19.45;8.52;;;5.20;99.90;;;;;;4172380;28;20481;-68
2021/01/18 06:28:38;;;;;;;19.60;8.80;;;5.10;99.90;;;;;;4192646;28;20033;-69
2021/01/18 06:30:39;;;;;;;18.38;8.90;;;5.10;99.90;;;;;;4185372;28;20049;-68
2021/01/18 06:32:40;;;;;;;20.33;9.10;;;5.10;99.90;;;;;;4199427;28;20359;-68
2021/01/18 06:34:40;;;;;;;21.77;10.85;;;5.10;99.90;;;;;;4196851;28;20031;-68
2021/01/18 06:37:01;;;;;;;20.02;9.73;;;5.10;99.90;;;;;;4143143;28;20029;-68
2021/01/18 06:39:07;;;;;;;30.13;11.77;;;5.00;99.90;;;;;;4174758;28;20393;-68
2021/01/18 06:41:08;;;;;;;20.75;10.73;;;5.00;99.90;;;;;;4173378;28;20047;-68
2021/01/18 06:43:10;;;;;;;23.58;10.68;;;5.00;99.90;;;;;;4180125;28;23023;-68
2021/01/18 06:45:20;;;;;;;28.88;11.90;;;5.10;99.90;;;;;;4177695;28;20032;-69
2021/01/18 06:47:41;;;;;;;23.73;12.18;;;5.10;99.90;;;;;;4180812;28;20029;-68
2021/01/18 06:49:42;;;;;;;23.15;12.23;;;5.10;99.90;;;;;;4171843;28;20557;-68
2021/01/18 06:51:51;;;;;;;23.80;12.05;;;5.10;99.90;;;;;;4175540;28;20033;-68
2021/01/18 06:53:54;;;;;;;23.27;12.27;;;5.10;99.90;;;;;;4178664;28;20034;-68
2021/01/18 06:56:03;;;;;;;30.10;12.73;;;5.10;99.90;;;;;;4177334;28;20039;-68
2021/01/18 06:58:31;;;;;;;36.28;13.60;;;5.10;99.90;;;;;;4173112;28;20458;-68
2021/01/18 07:00:39;;;;;;;32.47;14.43;;;5.10;99.90;;;;;;4173170;28;20274;-68
2021/01/18 07:03:06;;;;;;;23.50;13.43;;;5.10;99.90;;;;;;4166282;28;20509;-68
2021/01/18 07:05:09;;;;;;;32.80;15.35;;;5.10;99.90;;;;;;4188986;28;20124;-68
2021/01/18 07:07:24;;;;;;;31.98;14.50;;;5.10;99.90;;;;;;4190443;28;20052;-68
2021/01/18 07:09:26;;;;;;;37.38;14.68;;;5.10;99.90;;;;;;4220236;28;20087;-70
2021/01/18 07:11:27;;;;;;;31.25;14.75;;;5.10;99.90;;;;;;4190573;28;20047;-70
2021/01/18 07:13:31;;;;;;;30.83;13.93;;;5.10;99.90;;;;;;4190104;28;20055;-70
2021/01/18 07:15:36;;;;;;;33.00;13.60;;;5.10;99.90;;;;;;4190847;28;20039;-70
2021/01/18 07:17:47;;;;;;;27.58;14.35;;;5.10;99.90;;;;;;4191329;28;20120;-70
2021/01/18 07:19:58;;;;;;;33.15;13.85;;;5.10;99.90;;;;;;4183514;28;20047;-70
2021/01/18 07:22:25;;;;;;;30.80;14.50;;;5.20;99.90;;;;;;4187457;28;20033;-70
2021/01/18 07:24:29;;;;;;;38.42;15.40;;;5.20;99.90;;;;;;4188902;28;20075;-70
2021/01/18 07:26:32;;;;;;;24.90;12.93;;;5.20;99.90;;;;;;4190730;28;20060;-70
2021/01/18 07:28:33;;;;;;;25.45;12.93;;;5.20;99.90;;;;;;4189005;28;20374;-70
2021/01/18 07:30:36;;;;;;;34.00;15.00;;;5.20;99.90;;;;;;4189133;28;20089;-70
2021/01/18 07:32:38;;;;;;;26.00;13.32;;;5.20;99.90;;;;;;4188893;28;20044;-70
2021/01/18 07:34:39;;;;;;;26.88;12.13;;;5.20;99.90;;;;;;4172729;28;20477;-70
2021/01/18 07:36:41;;;;;;;29.48;11.95;;;5.20;99.90;;;;;;4190735;28;20037;-70
2021/01/18 07:38:42;;;;;;;28.38;12.10;;;5.30;99.90;;;;;;4188784;28;20510;-70
2021/01/18 07:41:07;;;;;;;26.50;10.77;;;5.20;99.90;;;;;;4190533;28;20048;-70
2021/01/18 07:43:09;;;;;;;22.23;9.57;;;5.20;99.90;;;;;;4189690;28;20041;-70
2021/01/18 07:45:12;;;;;;;24.98;10.45;;;5.20;99.90;;;;;;4196977;28;20036;-70
2021/01/18 07:47:14;;;;;;;17.92;8.80;;;5.20;99.90;;;;;;4194091;28;20119;-70
2021/01/18 07:49:15;;;;;;;19.80;9.65;;;5.30;99.90;;;;;;4189378;28;20028;-70
2021/01/18 07:51:29;;;;;;;25.35;10.15;;;5.30;99.90;;;;;;4187899;28;20029;-70
2021/01/18 07:53:31;;;;;;;21.33;9.77;;;5.30;99.90;;;;;;4190802;28;20060;-70
2021/01/18 07:55:32;;;;;;;22.50;9.85;;;5.30;99.90;;;;;;4174538;28;20037;-70
2021/01/18 07:57:36;;;;;;;27.10;9.70;;;5.30;99.90;;;;;;4176284;28;20036;-70
2021/01/18 07:59:36;;;;;;;17.27;8.77;;;5.30;99.90;;;;;;4178119;28;20346;-70
2021/01/18 08:01:37;;;;;;;29.25;9.93;;;5.30;99.90;;;;;;4178069;28;20107;-70
2021/01/18 08:03:38;;;;;;;17.95;9.23;;;5.20;99.90;;;;;;4157623;28;20041;-70
2021/01/18 08:05:40;;;;;;;22.48;9.90;;;5.20;99.90;;;;;;4174779;28;20049;-70
2021/01/18 08:08:02;;;;;;;29.30;12.05;;;5.20;99.90;;;;;;4181665;28;20043;-69
2021/01/18 08:10:04;;;;;;;23.52;10.23;;;5.20;99.90;;;;;;4177204;28;20048;-70
2021/01/18 08:12:32;;;;;;;20.52;8.95;;;5.20;99.90;;;;;;4180136;28;20029;-71
2021/01/18 08:14:32;;;;;;;22.02;9.70;;;5.30;99.90;;;;;;4178078;28;20178;-70
2021/01/18 08:16:36;;;;;;;25.60;10.68;;;5.30;99.90;;;;;;4188827;28;20036;-70
2021/01/18 08:18:49;;;;;;;29.20;9.82;;;5.30;99.90;;;;;;4203254;28;20033;-70
2021/01/18 08:20:49;;;;;;;;;;;5.30;99.90;;;;;;4188021;28;20037;-71
2021/01/18 08:22:50;;;;;;;22.98;10.02;;;5.30;99.90;;;;;;4189822;28;19915;-70
2021/01/18 08:24:51;;;;;;;21.13;10.38;;;5.30;99.90;;;;;;4191382;28;20037;-71
2021/01/18 08:26:59;;;;;;;18.17;10.30;;;5.30;99.90;;;;;;4189713;28;20037;-70
2021/01/18 08:29:00;;;;;;;28.13;11.30;;;5.30;99.90;;;;;;4189975;28;20082;-68
2021/01/18 08:31:01;;;;;;;28.30;11.50;;;5.20;99.90;;;;;;4188863;28;20089;-68
2021/01/18 08:33:02;;;;;;;26.58;11.98;;;5.30;99.90;;;;;;4189584;28;20033;-68
2021/01/18 08:35:17;;;;;;;29.07;12.40;;;5.20;99.90;;;;;;4183739;28;20041;-68
2021/01/18 08:37:17;;;;;;;33.03;12.02;;;5.20;99.90;;;;;;4192119;28;20067;-68
2021/01/18 08:39:18;;;;;;;27.45;12.25;;;5.30;99.90;;;;;;4190976;28;22538;-68
2021/01/18 08:41:21;;;;;;;25.13;10.50;;;5.30;99.90;;;;;;4193397;28;20044;-68
2021/01/18 08:43:22;;;;;;;;;;;5.30;99.90;;;;;;4194048;28;20131;-68
2021/01/18 08:45:28;;;;;;;30.67;11.00;;;5.30;99.90;;;;;;4191251;28;19917;-68
2021/01/18 08:47:35;;;;;;;27.52;11.90;;;5.30;99.90;;;;;;4190225;28;20044;-68
2021/01/18 08:49:36;;;;;;;27.52;11.15;;;5.30;99.90;;;;;;4172257;28;20124;-68
2021/01/18 08:51:44;;;;;;;24.58;10.70;;;5.30;99.90;;;;;;4174847;28;20021;-68
2021/01/18 08:53:50;;;;;;;26.02;11.27;;;5.30;99.90;;;;;;4176176;28;20543;-68
2021/01/18 08:55:55;;;;;;;27.52;11.35;;;5.30;99.90;;;;;;4177994;28;20025;-68
2021/01/18 08:58:04;;;;;;;27.80;12.50;;;5.30;99.90;;;;;;4176207;28;20065;-68
2021/01/18 09:00:10;;;;;;;25.60;10.23;;;5.30;99.90;;;;;;4175027;28;20029;-68
2021/01/18 09:02:17;;;;;;;24.75;11.13;;;5.30;99.90;;;;;;4177221;28;20037;-68
2021/01/18 09:04:24;;;;;;;26.02;10.57;;;5.30;99.90;;;;;;4176181;28;20647;-68
2021/01/18 09:06:26;;;;;;;24.45;10.82;;;5.30;99.90;;;;;;4176356;28;20064;-68
2021/01/18 09:08:28;;;;;;;26.88;11.23;;;5.30;99.90;;;;;;4171539;28;20072;-68
2021/01/18 09:10:29;;;;;;;23.77;10.75;;;5.30;99.90;;;;;;4180438;28;20065;-68
2021/01/18 09:12:32;;;;;;;25.77;11.02;;;5.40;99.90;;;;;;4176080;28;20036;-68
2021/01/18 09:14:33;;;;;;;29.80;11.77;;;5.40;99.90;;;;;;4185577;28;20024;-68
2021/01/18 09:16:39;;;;;;;25.33;11.88;;;5.30;99.90;;;;;;4176862;28;20120;-68
2021/01/18 09:18:40;;;;;;;31.38;11.82;;;5.30;99.90;;;;;;4179673;28;20257;-68
2021/01/18 09:20:41;;;;;;;22.95;10.48;;;5.30;99.90;;;;;;4174528;28;20515;-68
2021/01/18 09:22:43;;;;;;;27.13;12.30;;;5.30;99.90;;;;;;4171986;28;20712;-68
2021/01/18 09:24:44;;;;;;;22.55;11.48;;;5.30;99.90;;;;;;4170768;28;20033;-68
2021/01/18 09:26:45;;;;;;;35.90;13.55;;;5.30;99.90;;;;;;4182040;28;20033;-68
2021/01/18 09:28:53;;;;;;;27.67;11.95;;;5.30;99.90;;;;;;4185751;28;20048;-68
2021/01/18 09:30:54;;;;;;;32.63;13.98;;;5.30;99.90;;;;;;4180238;28;20117;-68
2021/01/18 09:33:02;;;;;;;30.27;11.70;;;5.30;99.90;;;;;;4176070;28;20473;-68
2021/01/18 09:35:05;;;;;;;26.75;11.57;;;5.30;99.90;;;;;;4180282;28;20057;-68
2021/01/18 09:37:06;;;;;;;30.98;12.70;;;5.30;99.90;;;;;;4171864;28;20073;-68
2021/01/18 09:39:18;;;;;;;24.75;11.20;;;5.30;99.90;;;;;;4176855;28;20051;-68
2021/01/18 09:41:19;;;;;;;29.25;12.05;;;5.30;99.90;;;;;;4173175;28;20447;-68
2021/01/18 09:43:21;;;;;;;25.65;11.20;;;5.40;99.90;;;;;;4170824;28;20053;-68
2021/01/18 09:45:23;;;;;;;;;;;5.40;99.90;;;;;;4183117;28;20107;-68
2021/01/18 09:47:24;;;;;;;26.88;10.65;;;5.40;99.90;;;;;;4179668;28;20330;-68
2021/01/18 09:49:28;;;;;;;30.02;11.98;;;5.40;99.90;;;;;;4184120;28;20052;-68
2021/01/18 09:51:28;;;;;;;25.70;11.18;;;5.40;99.90;;;;;;4179020;28;20040;-68
2021/01/18 09:53:30;;;;;;;25.27;11.45;;;5.40;99.90;;;;;;4178163;28;20063;-68
2021/01/18 09:55:34;;;;;;;24.77;11.65;;;5.40;99.90;;;;;;4184076;28;20467;-68
2021/01/18 09:57:38;;;;;;;25.52;11.07;;;5.40;99.90;;;;;;4199383;28;20044;-68
2021/01/18 09:59:42;;;;;;;27.98;11.63;;;5.40;99.90;;;;;;4192705;28;20033;-68
2021/01/18 10:01:44;;;;;;;26.15;11.07;;;5.40;99.90;;;;;;4190970;28;20059;-68
2021/01/18 10:03:58;;;;;;;26.35;10.77;;;5.40;99.90;;;;;;4198393;28;20036;-68
2021/01/18 10:06:04;;;;;;;35.17;12.68;;;5.40;99.90;;;;;;4192908;28;20054;-68
2021/01/18 10:08:21;;;;;;;23.70;10.25;;;5.40;99.90;;;;;;4193152;28;20032;-68
2021/01/18 10:10:22;;;;;;;23.02;10.18;;;5.50;99.90;;;;;;4179856;28;20071;-68
2021/01/18 10:12:24;;;;;;;28.08;11.15;;;5.50;99.90;;;;;;4172315;28;20110;-68
2021/01/18 10:14:27;;;;;;;33.80;12.07;;;5.50;99.90;;;;;;4178898;28;20032;-68
2021/01/18 10:16:28;;;;;;;28.10;10.45;;;5.60;99.90;;;;;;4178235;28;20087;-68
2021/01/18 10:18:44;;;;;;;25.13;10.98;;;5.50;99.90;;;;;;4188674;28;20028;-68
2021/01/18 10:20:53;;;;;;;34.35;11.05;;;5.60;99.90;;;;;;4217547;27;20027;-68
2021/01/18 10:22:55;;;;;;;31.65;10.65;;;5.60;99.90;;;;;;4190583;28;20115;-68
2021/01/18 10:24:57;;;;;;;28.35;10.02;;;5.60;99.90;;;;;;4195054;28;20058;-68
2021/01/18 10:27:04;;;;;;;27.77;9.77;;;5.70;99.90;;;;;;4176291;28;20055;-68
2021/01/18 10:29:09;;;;;;;31.25;11.10;;;5.70;99.90;;;;;;4173213;28;20387;-68
2021/01/18 10:31:17;;;;;;;25.35;9.88;;;5.80;99.90;;;;;;4171937;28;20432;-68
2021/01/18 10:33:18;;;;;;;27.83;10.40;;;5.80;99.90;;;;;;4172394;28;20114;-68
2021/01/18 10:35:29;;;;;;;23.13;9.88;;;5.80;99.90;;;;;;4164657;28;20513;-68
2021/01/18 10:37:29;;;;;;;28.70;9.50;;;5.80;99.90;;;;;;4174735;28;20349;-68
2021/01/18 10:39:38;;;;;;;28.15;9.85;;;5.90;99.90;;;;;;4164013;28;20041;-68
2021/01/18 10:41:42;;;;;;;28.40;9.20;;;6.00;99.90;;;;;;4178673;28;20029;-68
2021/01/18 10:43:43;;;;;;;30.40;9.65;;;6.00;99.90;;;;;;4184768;28;20046;-68
2021/01/18 10:45:43;;;;;;;20.33;8.02;;;6.00;99.90;;;;;;4183184;28;20056;-68
2021/01/18 10:48:14;;;;;;;19.92;8.07;;;6.10;99.90;;;;;;4190518;28;20060;-68